sensor_id;sensor_type;location;lat;lon;timestamp;temperature;humidity
14798;DHT22;7490;63.708;20.368;2022-12-05T00:01:40;-1.10;90.90
14798;DHT22;7490;63.708;20.368;2022-12-05T00:04:11;-1.20;90.90
14798;DHT22;7490;63.708;20.368;2022-12-05T00:06:39;-1.20;91.00
14798;DHT22;7490;63.708;20.368;2022-12-05T00:09:06;-1.20;91.10
14798;DHT22;7490;63.708;20.368;2022-12-05T00:11:34;-1.10;91.10
14798;DHT22;7490;63.708;20.368;2022-12-05T00:14:01;-1.10;91.10
14798;DHT22;7490;63.708;20.368;2022-12-05T00:16:28;-1.40;91.00
14798;DHT22;7490;63.708;20.368;2022-12-05T00:18:54;-1.00;91.00
14798;DHT22;7490;63.708;20.368;2022-12-05T00:21:24;-1.00;91.10
14798;DHT22;7490;63.708;20.368;2022-12-05T00:23:51;-0.90;91.20
14798;DHT22;7490;63.708;20.368;2022-12-05T00:26:16;-0.80;91.30
14798;DHT22;7490;63.708;20.368;2022-12-05T00:28:42;-0.80;91.40
14798;DHT22;7490;63.708;20.368;2022-12-05T00:31:12;-0.70;91.40
14798;DHT22;7490;63.708;20.368;2022-12-05T00:33:38;-0.40;91.50
14798;DHT22;7490;63.708;20.368;2022-12-05T00:36:13;-0.60;91.40
14798;DHT22;7490;63.708;20.368;2022-12-05T00:38:39;-0.50;91.40
14798;DHT22;7490;63.708;20.368;2022-12-05T00:41:11;-0.50;91.40
14798;DHT22;7490;63.708;20.368;2022-12-05T00:43:37;-0.40;91.40
14798;DHT22;7490;63.708;20.368;2022-12-05T00:46:05;-0.40;91.40
14798;DHT22;7490;63.708;20.368;2022-12-05T00:48:31;-0.30;91.40
14798;DHT22;7490;63.708;20.368;2022-12-05T00:51:06;-0.30;91.40
14798;DHT22;7490;63.708;20.368;2022-12-05T00:53:32;-0.20;91.40
14798;DHT22;7490;63.708;20.368;2022-12-05T00:56:19;-0.20;91.30
14798;DHT22;7490;63.708;20.368;2022-12-05T00:58:45;-0.20;91.30
14798;DHT22;7490;63.708;20.368;2022-12-05T01:03:39;-0.20;91.20
14798;DHT22;7490;63.708;20.368;2022-12-05T01:06:05;-0.20;91.20
14798;DHT22;7490;63.708;20.368;2022-12-05T01:08:32;-0.10;91.30
14798;DHT22;7490;63.708;20.368;2022-12-05T01:10:59;-0.10;91.30
14798;DHT22;7490;63.708;20.368;2022-12-05T01:13:26;-0.10;91.30
14798;DHT22;7490;63.708;20.368;2022-12-05T01:15:52;0.00;91.30
14798;DHT22;7490;63.708;20.368;2022-12-05T01:18:19;0.00;91.30
14798;DHT22;7490;63.708;20.368;2022-12-05T01:20:45;0.00;91.30
14798;DHT22;7490;63.708;20.368;2022-12-05T01:23:12;0.00;91.20
14798;DHT22;7490;63.708;20.368;2022-12-05T01:25:42;0.10;91.20
14798;DHT22;7490;63.708;20.368;2022-12-05T01:28:09;0.00;91.10
14798;DHT22;7490;63.708;20.368;2022-12-05T01:30:43;0.00;91.10
14798;DHT22;7490;63.708;20.368;2022-12-05T01:33:09;0.00;91.10
14798;DHT22;7490;63.708;20.368;2022-12-05T01:35:37;0.00;91.20
14798;DHT22;7490;63.708;20.368;2022-12-05T01:38:03;0.00;91.60
14798;DHT22;7490;63.708;20.368;2022-12-05T01:40:30;0.00;91.30
14798;DHT22;7490;63.708;20.368;2022-12-05T01:42:56;0.00;91.40
14798;DHT22;7490;63.708;20.368;2022-12-05T01:45:39;0.10;91.50
14798;DHT22;7490;63.708;20.368;2022-12-05T01:48:08;0.10;91.50
14798;DHT22;7490;63.708;20.368;2022-12-05T01:50:36;0.20;91.60
14798;DHT22;7490;63.708;20.368;2022-12-05T01:53:03;0.20;91.60
14798;DHT22;7490;63.708;20.368;2022-12-05T01:55:29;0.30;91.70
14798;DHT22;7490;63.708;20.368;2022-12-05T01:57:56;0.40;91.70
14798;DHT22;7490;63.708;20.368;2022-12-05T02:00:22;0.40;91.70
14798;DHT22;7490;63.708;20.368;2022-12-05T02:02:53;0.50;91.70
14798;DHT22;7490;63.708;20.368;2022-12-05T02:05:24;0.50;91.70
14798;DHT22;7490;63.708;20.368;2022-12-05T02:07:51;0.60;91.70
14798;DHT22;7490;63.708;20.368;2022-12-05T02:10:17;0.60;91.70
14798;DHT22;7490;63.708;20.368;2022-12-05T02:12:43;0.70;91.70
14798;DHT22;7490;63.708;20.368;2022-12-05T02:40:56;0.90;91.70
14798;DHT22;7490;63.708;20.368;2022-12-05T02:46:21;1.00;91.80
14798;DHT22;7490;63.708;20.368;2022-12-05T02:48:50;1.00;91.90
14798;DHT22;7490;63.708;20.368;2022-12-05T02:51:20;1.10;91.90
14798;DHT22;7490;63.708;20.368;2022-12-05T02:53:48;1.10;91.90
14798;DHT22;7490;63.708;20.368;2022-12-05T02:56:14;1.20;92.00
14798;DHT22;7490;63.708;20.368;2022-12-05T02:58:47;1.20;92.00
14798;DHT22;7490;63.708;20.368;2022-12-05T03:01:15;1.20;92.00
14798;DHT22;7490;63.708;20.368;2022-12-05T03:03:41;1.30;92.00
14798;DHT22;7490;63.708;20.368;2022-12-05T03:06:16;1.30;92.00
14798;DHT22;7490;63.708;20.368;2022-12-05T03:08:52;1.40;91.90
14798;DHT22;7490;63.708;20.368;2022-12-05T03:11:19;1.40;91.90
14798;DHT22;7490;63.708;20.368;2022-12-05T03:13:51;1.50;91.90
14798;DHT22;7490;63.708;20.368;2022-12-05T03:16:30;1.50;91.80
14798;DHT22;7490;63.708;20.368;2022-12-05T03:19:27;1.50;91.80
14798;DHT22;7490;63.708;20.368;2022-12-05T03:22:06;1.50;91.70
14798;DHT22;7490;63.708;20.368;2022-12-05T03:24:35;1.50;91.70
14798;DHT22;7490;63.708;20.368;2022-12-05T03:29:55;1.50;91.80
14798;DHT22;7490;63.708;20.368;2022-12-05T03:32:33;1.50;91.80
14798;DHT22;7490;63.708;20.368;2022-12-05T03:35:23;1.40;91.80
14798;DHT22;7490;63.708;20.368;2022-12-05T03:38:00;1.50;91.80
14798;DHT22;7490;63.708;20.368;2022-12-05T03:43:17;1.50;91.90
14798;DHT22;7490;63.708;20.368;2022-12-05T03:45:58;1.50;91.90
14798;DHT22;7490;63.708;20.368;2022-12-05T03:49:31;1.50;91.90
14798;DHT22;7490;63.708;20.368;2022-12-05T03:51:57;1.60;91.90
14798;DHT22;7490;63.708;20.368;2022-12-05T03:54:31;1.60;92.00
14798;DHT22;7490;63.708;20.368;2022-12-05T03:57:31;1.60;91.90
14798;DHT22;7490;63.708;20.368;2022-12-05T04:02:43;1.70;92.00
14798;DHT22;7490;63.708;20.368;2022-12-05T04:05:23;1.70;91.90
14798;DHT22;7490;63.708;20.368;2022-12-05T04:08:00;1.70;91.90
14798;DHT22;7490;63.708;20.368;2022-12-05T04:10:29;1.80;91.90
14798;DHT22;7490;63.708;20.368;2022-12-05T04:12:59;1.80;91.80
14798;DHT22;7490;63.708;20.368;2022-12-05T04:15:46;1.80;91.80
14798;DHT22;7490;63.708;20.368;2022-12-05T04:18:33;1.90;91.80
14798;DHT22;7490;63.708;20.368;2022-12-05T04:21:02;1.90;91.80
14798;DHT22;7490;63.708;20.368;2022-12-05T04:23:47;1.90;91.80
14798;DHT22;7490;63.708;20.368;2022-12-05T04:26:33;1.90;91.70
14798;DHT22;7490;63.708;20.368;2022-12-05T04:29:14;1.90;91.70
14798;DHT22;7490;63.708;20.368;2022-12-05T04:31:43;1.90;91.70
14798;DHT22;7490;63.708;20.368;2022-12-05T04:34:13;2.00;91.60
14798;DHT22;7490;63.708;20.368;2022-12-05T04:36:47;2.00;91.90
14798;DHT22;7490;63.708;20.368;2022-12-05T04:39:20;2.00;91.50
14798;DHT22;7490;63.708;20.368;2022-12-05T04:42:09;1.90;91.50
14798;DHT22;7490;63.708;20.368;2022-12-05T04:44:47;1.90;91.40
14798;DHT22;7490;63.708;20.368;2022-12-05T04:47:16;1.90;91.40
14798;DHT22;7490;63.708;20.368;2022-12-05T04:49:44;1.90;91.30
14798;DHT22;7490;63.708;20.368;2022-12-05T04:52:11;1.90;91.40
14798;DHT22;7490;63.708;20.368;2022-12-05T04:54:41;2.00;91.40
14798;DHT22;7490;63.708;20.368;2022-12-05T04:57:25;2.00;91.30
14798;DHT22;7490;63.708;20.368;2022-12-05T04:59:52;2.00;91.30
14798;DHT22;7490;63.708;20.368;2022-12-05T05:02:23;2.00;91.30
14798;DHT22;7490;63.708;20.368;2022-12-05T05:04:52;2.00;91.30
14798;DHT22;7490;63.708;20.368;2022-12-05T05:07:20;2.00;91.20
14798;DHT22;7490;63.708;20.368;2022-12-05T05:09:45;1.90;91.20
14798;DHT22;7490;63.708;20.368;2022-12-05T05:12:11;1.90;91.10
14798;DHT22;7490;63.708;20.368;2022-12-05T05:14:37;1.90;91.10
14798;DHT22;7490;63.708;20.368;2022-12-05T05:17:02;1.80;91.10
14798;DHT22;7490;63.708;20.368;2022-12-05T05:19:28;1.80;91.10
14798;DHT22;7490;63.708;20.368;2022-12-05T05:21:54;1.80;91.10
14798;DHT22;7490;63.708;20.368;2022-12-05T05:24:20;1.80;91.00
14798;DHT22;7490;63.708;20.368;2022-12-05T05:26:47;1.80;91.00
14798;DHT22;7490;63.708;20.368;2022-12-05T05:29:14;1.80;91.10
14798;DHT22;7490;63.708;20.368;2022-12-05T05:31:40;1.80;91.00
14798;DHT22;7490;63.708;20.368;2022-12-05T05:34:07;1.80;90.90
14798;DHT22;7490;63.708;20.368;2022-12-05T05:36:33;1.80;90.90
14798;DHT22;7490;63.708;20.368;2022-12-05T05:39:00;1.80;90.80
14798;DHT22;7490;63.708;20.368;2022-12-05T05:41:32;1.80;90.80
14798;DHT22;7490;63.708;20.368;2022-12-05T05:43:58;1.90;90.80
14798;DHT22;7490;63.708;20.368;2022-12-05T05:46:26;1.90;90.80
14798;DHT22;7490;63.708;20.368;2022-12-05T05:48:52;1.90;90.80
14798;DHT22;7490;63.708;20.368;2022-12-05T05:51:19;1.90;90.70
14798;DHT22;7490;63.708;20.368;2022-12-05T05:53:46;1.90;90.70
14798;DHT22;7490;63.708;20.368;2022-12-05T05:56:16;1.90;90.70
14798;DHT22;7490;63.708;20.368;2022-12-05T05:58:42;1.90;90.60
14798;DHT22;7490;63.708;20.368;2022-12-05T06:01:10;1.90;90.60
14798;DHT22;7490;63.708;20.368;2022-12-05T06:03:37;1.90;90.60
14798;DHT22;7490;63.708;20.368;2022-12-05T06:06:05;1.90;90.60
14798;DHT22;7490;63.708;20.368;2022-12-05T06:08:33;1.90;90.50
14798;DHT22;7490;63.708;20.368;2022-12-05T06:11:03;1.90;90.50
14798;DHT22;7490;63.708;20.368;2022-12-05T06:13:29;1.90;90.60
14798;DHT22;7490;63.708;20.368;2022-12-05T06:15:55;1.90;90.50
14798;DHT22;7490;63.708;20.368;2022-12-05T06:18:21;2.00;90.50
14798;DHT22;7490;63.708;20.368;2022-12-05T06:20:54;2.00;90.40
14798;DHT22;7490;63.708;20.368;2022-12-05T06:23:20;2.00;90.30
14798;DHT22;7490;63.708;20.368;2022-12-05T06:25:50;1.90;90.30
14798;DHT22;7490;63.708;20.368;2022-12-05T06:28:18;1.90;90.30
14798;DHT22;7490;63.708;20.368;2022-12-05T06:30:44;1.90;90.30
14798;DHT22;7490;63.708;20.368;2022-12-05T06:33:10;1.80;90.60
14798;DHT22;7490;63.708;20.368;2022-12-05T06:35:36;1.80;90.40
14798;DHT22;7490;63.708;20.368;2022-12-05T06:38:02;1.80;90.30
14798;DHT22;7490;63.708;20.368;2022-12-05T06:40:28;1.90;90.50
14798;DHT22;7490;63.708;20.368;2022-12-05T06:42:54;1.80;90.20
14798;DHT22;7490;63.708;20.368;2022-12-05T06:45:20;1.80;90.30
14798;DHT22;7490;63.708;20.368;2022-12-05T06:47:46;1.80;90.20
14798;DHT22;7490;63.708;20.368;2022-12-05T06:50:11;1.80;90.20
14798;DHT22;7490;63.708;20.368;2022-12-05T06:52:37;1.70;90.10
14798;DHT22;7490;63.708;20.368;2022-12-05T06:55:03;1.70;90.20
14798;DHT22;7490;63.708;20.368;2022-12-05T06:57:29;1.60;90.20
14798;DHT22;7490;63.708;20.368;2022-12-05T06:59:56;1.60;90.20
14798;DHT22;7490;63.708;20.368;2022-12-05T07:02:42;1.60;90.30
14798;DHT22;7490;63.708;20.368;2022-12-05T07:05:09;1.60;90.30
14798;DHT22;7490;63.708;20.368;2022-12-05T07:07:35;1.60;90.30
14798;DHT22;7490;63.708;20.368;2022-12-05T07:10:01;1.60;90.30
14798;DHT22;7490;63.708;20.368;2022-12-05T07:12:26;1.60;90.30
14798;DHT22;7490;63.708;20.368;2022-12-05T07:14:52;1.60;90.30
14798;DHT22;7490;63.708;20.368;2022-12-05T07:17:19;1.60;90.30
14798;DHT22;7490;63.708;20.368;2022-12-05T07:19:48;1.60;90.30
14798;DHT22;7490;63.708;20.368;2022-12-05T07:22:15;1.70;90.30
14798;DHT22;7490;63.708;20.368;2022-12-05T07:24:42;1.70;90.30
14798;DHT22;7490;63.708;20.368;2022-12-05T07:27:07;1.70;90.30
14798;DHT22;7490;63.708;20.368;2022-12-05T07:29:33;1.70;90.30
14798;DHT22;7490;63.708;20.368;2022-12-05T07:31:59;1.70;90.30
14798;DHT22;7490;63.708;20.368;2022-12-05T07:34:24;1.60;90.30
14798;DHT22;7490;63.708;20.368;2022-12-05T07:36:50;1.60;90.30
14798;DHT22;7490;63.708;20.368;2022-12-05T07:39:16;1.70;90.40
14798;DHT22;7490;63.708;20.368;2022-12-05T07:41:42;1.70;90.40
14798;DHT22;7490;63.708;20.368;2022-12-05T07:44:09;1.70;90.40
14798;DHT22;7490;63.708;20.368;2022-12-05T07:46:36;1.70;90.40
14798;DHT22;7490;63.708;20.368;2022-12-05T07:49:02;1.70;90.40
14798;DHT22;7490;63.708;20.368;2022-12-05T07:51:28;1.70;90.40
14798;DHT22;7490;63.708;20.368;2022-12-05T07:53:54;1.80;90.50
14798;DHT22;7490;63.708;20.368;2022-12-05T07:56:20;1.80;90.50
14798;DHT22;7490;63.708;20.368;2022-12-05T07:58:47;1.80;90.50
14798;DHT22;7490;63.708;20.368;2022-12-05T08:01:16;1.80;90.50
14798;DHT22;7490;63.708;20.368;2022-12-05T08:03:42;1.90;90.60
14798;DHT22;7490;63.708;20.368;2022-12-05T08:06:13;1.90;90.60
14798;DHT22;7490;63.708;20.368;2022-12-05T08:08:40;1.90;90.60
14798;DHT22;7490;63.708;20.368;2022-12-05T08:11:14;2.00;90.60
14798;DHT22;7490;63.708;20.368;2022-12-05T08:13:40;2.00;90.60
14798;DHT22;7490;63.708;20.368;2022-12-05T08:16:15;2.00;90.50
14798;DHT22;7490;63.708;20.368;2022-12-05T08:18:42;2.00;90.60
14798;DHT22;7490;63.708;20.368;2022-12-05T08:21:13;2.00;90.60
14798;DHT22;7490;63.708;20.368;2022-12-05T08:23:40;2.00;90.60
14798;DHT22;7490;63.708;20.368;2022-12-05T08:26:17;2.00;90.60
14798;DHT22;7490;63.708;20.368;2022-12-05T08:28:45;2.00;90.60
14798;DHT22;7490;63.708;20.368;2022-12-05T08:31:16;2.10;90.70
14798;DHT22;7490;63.708;20.368;2022-12-05T08:33:42;2.10;90.70
14798;DHT22;7490;63.708;20.368;2022-12-05T08:36:11;2.10;90.60
14798;DHT22;7490;63.708;20.368;2022-12-05T08:38:38;2.10;90.70
14798;DHT22;7490;63.708;20.368;2022-12-05T08:41:06;2.20;90.70
14798;DHT22;7490;63.708;20.368;2022-12-05T08:43:32;2.20;90.70
14798;DHT22;7490;63.708;20.368;2022-12-05T08:45:58;2.20;90.70
14798;DHT22;7490;63.708;20.368;2022-12-05T08:48:26;2.30;90.70
14798;DHT22;7490;63.708;20.368;2022-12-05T08:50:52;2.30;90.70
14798;DHT22;7490;63.708;20.368;2022-12-05T08:53:18;2.30;90.60
14798;DHT22;7490;63.708;20.368;2022-12-05T08:55:43;2.40;90.60
14798;DHT22;7490;63.708;20.368;2022-12-05T08:58:13;2.40;90.60
14798;DHT22;7490;63.708;20.368;2022-12-05T09:00:39;2.40;90.60
14798;DHT22;7490;63.708;20.368;2022-12-05T09:03:05;2.40;90.60
14798;DHT22;7490;63.708;20.368;2022-12-05T09:05:31;2.50;90.60
14798;DHT22;7490;63.708;20.368;2022-12-05T09:07:57;2.50;90.60
14798;DHT22;7490;63.708;20.368;2022-12-05T09:10:25;2.50;90.60
14798;DHT22;7490;63.708;20.368;2022-12-05T09:12:50;2.50;90.60
14798;DHT22;7490;63.708;20.368;2022-12-05T09:15:16;2.50;90.60
14798;DHT22;7490;63.708;20.368;2022-12-05T09:17:42;2.50;90.60
14798;DHT22;7490;63.708;20.368;2022-12-05T09:20:08;2.50;90.50
14798;DHT22;7490;63.708;20.368;2022-12-05T09:22:36;2.50;90.60
14798;DHT22;7490;63.708;20.368;2022-12-05T09:25:02;2.60;90.60
14798;DHT22;7490;63.708;20.368;2022-12-05T09:27:28;2.60;90.60
14798;DHT22;7490;63.708;20.368;2022-12-05T09:29:54;2.60;90.60
14798;DHT22;7490;63.708;20.368;2022-12-05T09:32:20;2.60;90.60
14798;DHT22;7490;63.708;20.368;2022-12-05T09:34:45;2.60;90.60
14798;DHT22;7490;63.708;20.368;2022-12-05T09:37:11;2.60;90.60
14798;DHT22;7490;63.708;20.368;2022-12-05T09:39:37;2.60;90.60
14798;DHT22;7490;63.708;20.368;2022-12-05T09:53:10;2.70;90.50
14798;DHT22;7490;63.708;20.368;2022-12-05T09:58:46;2.70;90.60
14798;DHT22;7490;63.708;20.368;2022-12-05T10:17:20;2.60;90.50
14798;DHT22;7490;63.708;20.368;2022-12-05T10:19:48;2.60;90.50
14798;DHT22;7490;63.708;20.368;2022-12-05T10:22:21;2.60;90.90
14798;DHT22;7490;63.708;20.368;2022-12-05T10:24:52;2.60;90.50
14798;DHT22;7490;63.708;20.368;2022-12-05T10:27:41;2.60;90.50
14798;DHT22;7490;63.708;20.368;2022-12-05T10:30:13;2.60;90.50
14798;DHT22;7490;63.708;20.368;2022-12-05T10:33:02;2.60;90.60
14798;DHT22;7490;63.708;20.368;2022-12-05T10:35:39;2.60;90.50
14798;DHT22;7490;63.708;20.368;2022-12-05T10:38:37;2.60;90.50
14798;DHT22;7490;63.708;20.368;2022-12-05T10:41:06;2.60;90.50
14798;DHT22;7490;63.708;20.368;2022-12-05T10:43:33;2.60;90.50
14798;DHT22;7490;63.708;20.368;2022-12-05T10:46:01;2.60;90.50
14798;DHT22;7490;63.708;20.368;2022-12-05T10:48:27;2.60;90.50
14798;DHT22;7490;63.708;20.368;2022-12-05T10:50:55;2.60;90.50
14798;DHT22;7490;63.708;20.368;2022-12-05T10:59:11;2.50;90.50
14798;DHT22;7490;63.708;20.368;2022-12-05T11:01:43;2.50;90.50
14798;DHT22;7490;63.708;20.368;2022-12-05T11:04:26;2.50;90.50
14798;DHT22;7490;63.708;20.368;2022-12-05T11:07:02;2.50;90.60
14798;DHT22;7490;63.708;20.368;2022-12-05T11:09:31;2.60;90.60
14798;DHT22;7490;63.708;20.368;2022-12-05T11:14:29;2.60;90.60
14798;DHT22;7490;63.708;20.368;2022-12-05T11:16:58;2.60;90.60
14798;DHT22;7490;63.708;20.368;2022-12-05T11:19:27;2.60;90.60
14798;DHT22;7490;63.708;20.368;2022-12-05T11:21:54;2.60;90.60
14798;DHT22;7490;63.708;20.368;2022-12-05T11:24:32;2.70;90.60
14798;DHT22;7490;63.708;20.368;2022-12-05T11:27:17;2.70;90.60
14798;DHT22;7490;63.708;20.368;2022-12-05T11:30:29;2.70;90.60
14798;DHT22;7490;63.708;20.368;2022-12-05T11:32:49;2.70;90.60
14798;DHT22;7490;63.708;20.368;2022-12-05T11:38:05;2.70;90.70
14798;DHT22;7490;63.708;20.368;2022-12-05T11:51:50;2.80;90.80
14798;DHT22;7490;63.708;20.368;2022-12-05T11:57:14;2.90;90.90
14798;DHT22;7490;63.708;20.368;2022-12-05T12:02:57;2.90;90.90
14798;DHT22;7490;63.708;20.368;2022-12-05T12:05:40;2.90;90.90
14798;DHT22;7490;63.708;20.368;2022-12-05T12:08:54;2.90;90.90
14798;DHT22;7490;63.708;20.368;2022-12-05T12:11:40;2.90;90.90
14798;DHT22;7490;63.708;20.368;2022-12-05T12:14:13;3.00;91.00
14798;DHT22;7490;63.708;20.368;2022-12-05T12:24:49;3.10;91.10
14798;DHT22;7490;63.708;20.368;2022-12-05T12:30:09;3.20;91.10
14798;DHT22;7490;63.708;20.368;2022-12-05T12:32:57;3.20;91.10
14798;DHT22;7490;63.708;20.368;2022-12-05T12:46:49;3.30;91.20
14798;DHT22;7490;63.708;20.368;2022-12-05T12:51:53;3.30;91.30
14798;DHT22;7490;63.708;20.368;2022-12-05T12:54:54;3.30;91.30
14798;DHT22;7490;63.708;20.368;2022-12-05T12:57:44;3.30;91.30
14798;DHT22;7490;63.708;20.368;2022-12-05T13:00:31;3.30;91.30
14798;DHT22;7490;63.708;20.368;2022-12-05T13:03:11;3.30;91.30
14798;DHT22;7490;63.708;20.368;2022-12-05T13:09:05;3.30;91.30
14798;DHT22;7490;63.708;20.368;2022-12-05T13:11:34;3.30;91.30
14798;DHT22;7490;63.708;20.368;2022-12-05T13:14:01;3.30;91.30
14798;DHT22;7490;63.708;20.368;2022-12-05T13:16:31;3.30;91.30
14798;DHT22;7490;63.708;20.368;2022-12-05T13:18:57;3.30;91.40
14798;DHT22;7490;63.708;20.368;2022-12-05T13:21:24;3.30;91.40
14798;DHT22;7490;63.708;20.368;2022-12-05T13:23:53;3.30;91.50
14798;DHT22;7490;63.708;20.368;2022-12-05T13:26:28;3.40;91.50
14798;DHT22;7490;63.708;20.368;2022-12-05T13:28:59;3.40;91.50
14798;DHT22;7490;63.708;20.368;2022-12-05T13:31:45;3.40;91.50
14798;DHT22;7490;63.708;20.368;2022-12-05T13:37:08;3.50;91.60
14798;DHT22;7490;63.708;20.368;2022-12-05T13:39:54;3.50;91.60
14798;DHT22;7490;63.708;20.368;2022-12-05T13:42:40;3.50;91.50
14798;DHT22;7490;63.708;20.368;2022-12-05T13:45:09;3.60;91.50
14798;DHT22;7490;63.708;20.368;2022-12-05T13:47:59;3.60;91.60
14798;DHT22;7490;63.708;20.368;2022-12-05T13:53:28;3.60;91.60
14798;DHT22;7490;63.708;20.368;2022-12-05T13:56:24;3.60;91.70
14798;DHT22;7490;63.708;20.368;2022-12-05T13:58:53;3.60;91.70
14798;DHT22;7490;63.708;20.368;2022-12-05T14:17:25;3.60;91.60
14798;DHT22;7490;63.708;20.368;2022-12-05T14:23:11;3.60;91.60
14798;DHT22;7490;63.708;20.368;2022-12-05T14:25:59;3.60;91.60
14798;DHT22;7490;63.708;20.368;2022-12-05T14:33:42;3.40;91.60
14798;DHT22;7490;63.708;20.368;2022-12-05T14:36:15;3.40;91.70
14798;DHT22;7490;63.708;20.368;2022-12-05T14:38:43;3.40;91.70
14798;DHT22;7490;63.708;20.368;2022-12-05T14:41:18;3.40;91.80
14798;DHT22;7490;63.708;20.368;2022-12-05T14:43:52;3.40;92.10
14798;DHT22;7490;63.708;20.368;2022-12-05T14:46:30;3.40;91.80
14798;DHT22;7490;63.708;20.368;2022-12-05T14:48:57;3.40;91.70
14798;DHT22;7490;63.708;20.368;2022-12-05T14:54:09;3.40;91.70
14798;DHT22;7490;63.708;20.368;2022-12-05T14:56:42;3.40;91.80
14798;DHT22;7490;63.708;20.368;2022-12-05T14:59:33;3.40;91.90
14798;DHT22;7490;63.708;20.368;2022-12-05T15:02:03;3.40;92.00
14798;DHT22;7490;63.708;20.368;2022-12-05T15:04:31;3.40;92.00
14798;DHT22;7490;63.708;20.368;2022-12-05T15:07:07;3.50;92.10
14798;DHT22;7490;63.708;20.368;2022-12-05T15:09:44;3.60;92.20
14798;DHT22;7490;63.708;20.368;2022-12-05T15:17:44;3.80;92.20
14798;DHT22;7490;63.708;20.368;2022-12-05T15:20:21;3.80;92.10
14798;DHT22;7490;63.708;20.368;2022-12-05T15:22:48;3.80;92.10
14798;DHT22;7490;63.708;20.368;2022-12-05T15:25:21;3.90;92.10
14798;DHT22;7490;63.708;20.368;2022-12-05T15:28:17;3.90;92.10
14798;DHT22;7490;63.708;20.368;2022-12-05T15:30:53;3.90;92.10
14798;DHT22;7490;63.708;20.368;2022-12-05T15:33:22;3.90;92.10
14798;DHT22;7490;63.708;20.368;2022-12-05T15:35:49;3.90;92.00
14798;DHT22;7490;63.708;20.368;2022-12-05T15:38:29;3.90;91.90
14798;DHT22;7490;63.708;20.368;2022-12-05T15:40:57;4.00;92.30
14798;DHT22;7490;63.708;20.368;2022-12-05T15:43:27;4.00;91.90
14798;DHT22;7490;63.708;20.368;2022-12-05T15:46:18;3.90;91.90
14798;DHT22;7490;63.708;20.368;2022-12-05T15:48:45;3.90;91.90
14798;DHT22;7490;63.708;20.368;2022-12-05T15:51:11;3.90;91.80
14798;DHT22;7490;63.708;20.368;2022-12-05T15:53:41;3.90;91.70
14798;DHT22;7490;63.708;20.368;2022-12-05T15:56:20;3.90;91.60
14798;DHT22;7490;63.708;20.368;2022-12-05T15:59:09;3.80;91.60
14798;DHT22;7490;63.708;20.368;2022-12-05T16:01:43;3.80;91.50
14798;DHT22;7490;63.708;20.368;2022-12-05T16:04:33;3.70;91.40
14798;DHT22;7490;63.708;20.368;2022-12-05T16:07:06;3.70;91.50
14798;DHT22;7490;63.708;20.368;2022-12-05T16:09:38;3.60;91.40
14798;DHT22;7490;63.708;20.368;2022-12-05T16:12:15;3.60;91.40
14798;DHT22;7490;63.708;20.368;2022-12-05T16:14:41;3.50;91.50
14798;DHT22;7490;63.708;20.368;2022-12-05T16:17:13;3.50;91.60
14798;DHT22;7490;63.708;20.368;2022-12-05T16:19:39;3.50;91.70
14798;DHT22;7490;63.708;20.368;2022-12-05T16:22:24;3.50;91.70
14798;DHT22;7490;63.708;20.368;2022-12-05T16:27:28;3.40;91.80
14798;DHT22;7490;63.708;20.368;2022-12-05T16:32:38;3.40;91.90
14798;DHT22;7490;63.708;20.368;2022-12-05T16:35:28;3.40;92.00
14798;DHT22;7490;63.708;20.368;2022-12-05T16:48:38;3.40;92.00
14798;DHT22;7490;63.708;20.368;2022-12-05T16:51:14;3.40;92.00
14798;DHT22;7490;63.708;20.368;2022-12-05T16:58:52;3.40;92.00
14798;DHT22;7490;63.708;20.368;2022-12-05T17:01:21;3.40;92.00
14798;DHT22;7490;63.708;20.368;2022-12-05T17:03:47;3.40;92.00
14798;DHT22;7490;63.708;20.368;2022-12-05T17:06:13;3.40;92.10
14798;DHT22;7490;63.708;20.368;2022-12-05T17:08:40;3.50;92.10
14798;DHT22;7490;63.708;20.368;2022-12-05T17:11:35;3.50;92.10
14798;DHT22;7490;63.708;20.368;2022-12-05T17:14:03;3.50;92.10
14798;DHT22;7490;63.708;20.368;2022-12-05T17:16:29;3.50;92.10
14798;DHT22;7490;63.708;20.368;2022-12-05T17:18:54;3.50;92.00
14798;DHT22;7490;63.708;20.368;2022-12-05T17:21:22;3.50;92.00
14798;DHT22;7490;63.708;20.368;2022-12-05T17:23:48;3.50;92.00
14798;DHT22;7490;63.708;20.368;2022-12-05T17:26:17;3.40;92.00
14798;DHT22;7490;63.708;20.368;2022-12-05T17:28:43;3.40;92.00
14798;DHT22;7490;63.708;20.368;2022-12-05T17:31:12;3.40;92.00
14798;DHT22;7490;63.708;20.368;2022-12-05T17:33:39;3.40;92.00
14798;DHT22;7490;63.708;20.368;2022-12-05T17:36:04;3.40;92.00
14798;DHT22;7490;63.708;20.368;2022-12-05T17:38:30;3.40;91.90
14798;DHT22;7490;63.708;20.368;2022-12-05T17:40:56;3.30;91.90
14798;DHT22;7490;63.708;20.368;2022-12-05T17:43:21;3.30;91.90
14798;DHT22;7490;63.708;20.368;2022-12-05T17:45:47;3.30;91.90
14798;DHT22;7490;63.708;20.368;2022-12-05T17:48:14;3.20;91.90
14798;DHT22;7490;63.708;20.368;2022-12-05T17:50:41;3.20;92.00
14798;DHT22;7490;63.708;20.368;2022-12-05T17:53:12;3.20;92.00
14798;DHT22;7490;63.708;20.368;2022-12-05T17:55:38;3.20;92.00
14798;DHT22;7490;63.708;20.368;2022-12-05T17:58:03;3.20;92.10
14798;DHT22;7490;63.708;20.368;2022-12-05T18:00:29;3.20;92.10
14798;DHT22;7490;63.708;20.368;2022-12-05T18:02:55;3.20;92.10
14798;DHT22;7490;63.708;20.368;2022-12-05T18:05:21;3.20;92.10
14798;DHT22;7490;63.708;20.368;2022-12-05T18:07:47;3.20;92.20
14798;DHT22;7490;63.708;20.368;2022-12-05T18:10:20;3.20;92.20
14798;DHT22;7490;63.708;20.368;2022-12-05T18:12:47;3.20;92.30
14798;DHT22;7490;63.708;20.368;2022-12-05T18:15:14;3.20;92.40
14798;DHT22;7490;63.708;20.368;2022-12-05T18:17:40;3.40;92.50
14798;DHT22;7490;63.708;20.368;2022-12-05T18:20:07;3.20;92.40
14798;DHT22;7490;63.708;20.368;2022-12-05T18:22:33;3.20;92.40
14798;DHT22;7490;63.708;20.368;2022-12-05T18:24:59;3.20;92.40
14798;DHT22;7490;63.708;20.368;2022-12-05T18:27:26;3.20;92.30
14798;DHT22;7490;63.708;20.368;2022-12-05T18:29:52;3.20;92.30
14798;DHT22;7490;63.708;20.368;2022-12-05T18:32:18;3.20;92.30
14798;DHT22;7490;63.708;20.368;2022-12-05T18:34:44;3.20;92.30
14798;DHT22;7490;63.708;20.368;2022-12-05T18:37:10;3.10;92.40
14798;DHT22;7490;63.708;20.368;2022-12-05T18:39:38;3.10;92.40
14798;DHT22;7490;63.708;20.368;2022-12-05T18:42:05;3.10;92.40
14798;DHT22;7490;63.708;20.368;2022-12-05T18:44:31;3.10;92.50
14798;DHT22;7490;63.708;20.368;2022-12-05T18:46:57;3.10;92.50
14798;DHT22;7490;63.708;20.368;2022-12-05T18:49:22;3.00;92.30
14798;DHT22;7490;63.708;20.368;2022-12-05T18:51:48;3.00;92.20
14798;DHT22;7490;63.708;20.368;2022-12-05T18:54:14;2.90;92.10
14798;DHT22;7490;63.708;20.368;2022-12-05T18:56:40;2.80;92.10
14798;DHT22;7490;63.708;20.368;2022-12-05T18:59:13;2.80;92.10
14798;DHT22;7490;63.708;20.368;2022-12-05T19:01:39;2.70;92.20
14798;DHT22;7490;63.708;20.368;2022-12-05T19:04:07;2.70;92.20
14798;DHT22;7490;63.708;20.368;2022-12-05T19:06:35;2.70;92.30
14798;DHT22;7490;63.708;20.368;2022-12-05T19:09:04;2.70;92.30
14798;DHT22;7490;63.708;20.368;2022-12-05T19:11:30;2.70;92.30
14798;DHT22;7490;63.708;20.368;2022-12-05T19:13:58;2.70;92.30